Time;durP1;ratioP1;P1;durP2;ratioP2;P2;SDS_P1;SDS_P2;PMS_P1;PMS_P2;Temp;Humidity;BMP_temperature;BMP_pressure;BME280_temperature;BME280_humidity;BME280_pressure;Samples;Min_cycle;Max_cycle;Signal;HPM_P1;HPM_P2
2021/06/02 00:00:14;;;;;;;1.47;1.00;;;;;;;8.84;84.09;97961.96;1650247;87;21568;-71
2021/06/02 00:02:56;;;;;;;1.42;0.98;;;;;;;8.86;83.99;97967.84;1650242;87;21028;-71
2021/06/02 00:05:23;;;;;;;2.55;1.50;;;;;;;8.82;83.96;97962.58;1650113;87;21172;-66
2021/06/02 00:07:50;;;;;;;2.33;1.20;;;;;;;8.83;83.48;97962.91;1650227;87;21501;-65
2021/06/02 00:10:20;;;;;;;2.42;1.37;;;;;;;8.79;84.53;97960.73;1650943;87;21141;-71
2021/06/02 00:12:47;;;;;;;3.30;1.10;;;;;;;8.75;84.26;97964.06;1650578;87;21527;-66
2021/06/02 00:15:15;;;;;;;2.52;1.05;;;;;;;8.81;84.05;97963.52;1650137;87;21065;-67
2021/06/02 00:17:42;;;;;;;3.47;1.42;;;;;;;8.79;83.83;97966.73;1650153;87;21536;-73
2021/06/02 00:20:11;;;;;;;3.85;2.17;;;;;;;8.80;83.69;97965.77;1650203;87;21033;-74
2021/06/02 00:22:38;;;;;;;2.20;0.95;;;;;;;8.85;83.29;97967.97;1650428;87;21029;-67
2021/06/02 00:25:08;;;;;;;2.70;1.20;;;;;;;8.88;82.93;97964.63;1650412;87;21112;-68
2021/06/02 00:27:36;;;;;;;3.75;2.12;;;;;;;8.94;82.72;97968.00;1650137;87;21656;-67
2021/06/02 00:30:07;;;;;;;2.22;1.20;;;;;;;8.92;82.66;97969.06;1650153;87;21019;-74
2021/06/02 00:32:35;;;;;;;1.37;0.70;;;;;;;8.94;82.38;97971.89;1650105;87;21148;-67
2021/06/02 00:35:05;;;;;;;3.12;1.32;;;;;;;8.98;82.19;97962.91;1650143;87;21076;-73
2021/06/02 00:37:33;;;;;;;2.52;1.37;;;;;;;8.89;82.34;97967.57;1650269;87;21073;-72
2021/06/02 00:40:02;;;;;;;3.25;0.98;;;;;;;8.92;81.85;97964.71;1650265;87;21070;-66
2021/06/02 00:42:32;;;;;;;3.20;2.27;;;;;;;8.89;81.92;97971.45;1650271;87;21112;-71
2021/06/02 00:44:59;;;;;;;1.98;1.20;;;;;;;8.91;81.80;97971.34;1650199;87;21191;-68
2021/06/02 00:47:27;;;;;;;3.98;1.95;;;;;;;8.90;81.80;97973.58;1650252;87;21089;-66
2021/06/02 00:49:54;;;;;;;2.37;1.35;;;;;;;8.91;81.58;97966.16;1650483;87;21057;-73
2021/06/02 00:52:20;;;;;;;2.02;1.27;;;;;;;8.73;82.35;97965.13;1658278;86;21643;-64
2021/06/02 00:54:47;;;;;;;5.85;0.98;;;;;;;8.70;82.35;97962.34;1665172;86;21074;-66
2021/06/02 00:57:18;;;;;;;1.85;0.80;;;;;;;8.68;82.03;97959.04;1665266;86;21171;-73
2021/06/02 01:00:18;;;;;;;2.27;1.20;;;;;;;8.69;81.63;97958.09;1664921;86;21138;-66
2021/06/02 01:02:51;;;;;;;1.77;1.07;;;;;;;8.72;81.56;97956.53;1642781;87;21111;-73
2021/06/02 01:05:21;;;;;;;2.52;0.90;;;;;;;8.74;81.39;97960.30;1647273;87;21599;-65
2021/06/02 01:07:54;;;;;;;1.02;0.70;;;;;;;8.72;81.50;97962.19;1647423;87;21084;-72
2021/06/02 01:10:21;;;;;;;3.75;1.67;;;;;;;8.67;81.92;97964.37;1626821;87;21595;-65
2021/06/02 01:12:51;;;;;;;1.87;1.00;;;;;;;8.60;81.70;97961.96;1647409;87;21115;-71
2021/06/02 01:15:19;;;;;;;0.80;0.45;;;;;;;8.59;81.65;97957.25;1647446;87;21575;-67
2021/06/02 01:17:47;;;;;;;1.30;0.90;;;;;;;8.53;81.56;97961.17;1647444;87;21068;-65
2021/06/02 01:20:17;;;;;;;2.75;1.37;;;;;;;8.52;81.77;97956.14;1647418;87;21087;-67
2021/06/02 01:22:45;;;;;;;1.22;0.80;;;;;;;8.48;81.68;97952.97;1647389;87;21159;-67
2021/06/02 01:25:17;;;;;;;1.42;1.05;;;;;;;8.41;81.94;97958.32;1647341;87;21583;-66
2021/06/02 01:27:47;;;;;;;2.77;0.78;;;;;;;8.38;81.57;97950.82;1647284;87;21095;-65
2021/06/02 01:30:19;;;;;;;0.60;0.57;;;;;;;8.30;81.95;97957.58;1647281;87;21137;-73
2021/06/02 01:33:10;;;;;;;1.57;0.98;;;;;;;8.28;81.66;97953.81;1647358;87;21151;-73
2021/06/02 01:35:58;;;;;;;1.32;1.00;;;;;;;8.26;81.65;97962.63;1629013;87;21063;-66
2021/06/02 01:38:54;;;;;;;1.25;0.62;;;;;;;8.24;81.64;97961.48;1646946;87;21084;-73
2021/06/02 01:41:25;;;;;;;;;;;;;;;8.23;81.77;97962.89;1649908;87;21111;-66
2021/06/02 01:44:13;;;;;;;0.95;0.68;;;;;;;8.17;81.92;97961.62;1647562;87;20181;-73
2021/06/02 01:47:14;;;;;;;0.37;0.37;;;;;;;8.13;82.07;97953.80;1647555;87;21131;-66
2021/06/02 01:50:37;;;;;;;0.60;0.50;;;;;;;8.13;81.43;97952.52;1647761;87;21048;-66
2021/06/02 01:53:24;;;;;;;0.93;0.70;;;;;;;8.13;81.76;97953.80;1647724;87;21104;-73
2021/06/02 01:56:41;;;;;;;0.45;0.45;;;;;;;8.15;81.26;97951.90;1645925;86;21080;-66
2021/06/02 01:59:56;;;;;;;0.95;0.75;;;;;;;8.13;81.41;97957.19;1647503;86;21131;-73
2021/06/02 02:03:01;;;;;;;0.57;0.47;;;;;;;8.03;82.01;97965.84;1651319;86;21143;-72
2021/06/02 02:05:54;;;;;;;2.00;0.65;;;;;;;8.04;81.42;97963.61;1652051;87;21144;-73
2021/06/02 02:08:44;;;;;;;1.95;1.00;;;;;;;7.97;81.64;97962.02;1645764;87;21082;-65
2021/06/02 02:11:37;;;;;;;1.22;0.93;;;;;;;7.93;81.42;97965.80;1652729;87;21135;-66
2021/06/02 02:14:33;;;;;;;1.30;0.90;;;;;;;7.93;81.36;97971.44;1652642;86;21198;-65
2021/06/02 02:17:32;;;;;;;1.40;0.88;;;;;;;7.87;81.28;97973.21;1651384;86;21044;-73
2021/06/02 02:20:13;;;;;;;0.72;0.57;;;;;;;7.85;81.44;97973.83;1651849;86;21092;-66
2021/06/02 02:23:26;;;;;;;1.00;0.82;;;;;;;7.76;81.53;97976.68;1652548;87;21603;-72
2021/06/02 02:26:37;;;;;;;1.32;0.60;;;;;;;7.70;81.52;97975.91;1652770;87;21654;-66
2021/06/02 02:29:37;;;;;;;1.12;0.78;;;;;;;7.68;81.30;97978.23;1652764;87;21090;-65
2021/06/02 02:32:35;;;;;;;1.35;0.85;;;;;;;7.60;82.03;97977.10;1652907;86;21060;-70
2021/06/02 02:35:34;;;;;;;0.57;0.57;;;;;;;7.57;81.75;97972.66;1652725;87;21044;-66
2021/06/02 02:38:42;;;;;;;1.37;0.60;;;;;;;7.55;81.60;97973.23;1652764;87;21624;-64
2021/06/02 02:41:38;;;;;;;0.50;0.50;;;;;;;7.50;81.94;97981.37;1652862;86;21146;-64
2021/06/02 02:44:48;;;;;;;0.88;0.50;;;;;;;7.46;82.14;97976.11;1652677;86;21151;-66
2021/06/02 02:47:42;;;;;;;0.90;0.45;;;;;;;7.46;81.79;97981.74;1652570;87;21059;-70
2021/06/02 02:50:26;;;;;;;0.60;0.45;;;;;;;7.38;82.70;97978.48;1652621;87;21123;-66
2021/06/02 02:53:26;;;;;;;1.10;0.78;;;;;;;7.36;82.83;97978.23;1652645;87;21119;-64
2021/06/02 02:56:07;;;;;;;1.57;0.90;;;;;;;7.37;82.65;97983.76;1652332;86;21575;-65
2021/06/02 02:59:00;;;;;;;1.37;0.60;;;;;;;7.37;82.59;97984.59;1652030;86;21138;-65
2021/06/02 03:01:49;;;;;;;0.40;0.35;;;;;;;7.40;82.54;97985.62;1651399;87;21182;-65
2021/06/02 03:04:23;;;;;;;1.55;1.05;;;;;;;7.42;83.02;97990.68;1647354;87;21179;-66
2021/06/02 03:06:59;;;;;;;1.95;0.98;;;;;;;7.44;82.55;97990.90;1647320;87;21064;-67
2021/06/02 03:10:04;;;;;;;0.78;0.60;;;;;;;7.48;82.23;97989.71;1647216;87;21679;-67
2021/06/02 03:15:45;;;;;;;1.50;0.80;;;;;;;7.59;81.91;97982.38;1619654;89;21176;-72
2021/06/02 03:18:37;;;;;;;1.02;0.80;;;;;;;7.64;81.87;97983.67;1619382;89;21096;-66
2021/06/02 03:21:30;;;;;;;2.52;0.95;;;;;;;7.69;81.37;97996.69;1619725;87;21105;-66
2021/06/02 03:24:36;;;;;;;2.22;0.90;;;;;;;7.66;81.49;97990.02;1619479;89;21103;-70
2021/06/02 03:27:29;;;;;;;5.20;0.80;;;;;;;7.68;81.57;97995.87;1620465;89;21147;-72
2021/06/02 03:30:11;;;;;;;6.15;1.57;;;;;;;7.71;81.54;97992.20;1518075;93;21577;-66
2021/06/02 03:33:08;;;;;;;1.57;0.95;;;;;;;7.74;81.55;97997.97;1546403;91;21257;-67
2021/06/02 03:35:50;;;;;;;1.45;0.90;;;;;;;7.82;81.05;97996.06;1597981;88;21088;-64
2021/06/02 03:38:25;;;;;;;1.45;0.57;;;;;;;7.91;81.00;98003.87;1619411;89;21116;-70
2021/06/02 03:41:09;;;;;;;1.25;0.80;;;;;;;7.97;80.38;98002.09;1618498;88;21096;-74
2021/06/02 03:43:51;;;;;;;8.48;4.25;;;;;;;8.04;80.15;98005.81;1619342;88;21093;-68
2021/06/02 03:46:46;;;;;;;9.50;5.28;;;;;;;8.13;80.32;98008.12;1588797;89;21075;-74
2021/06/02 03:49:45;;;;;;;26.00;13.00;;;;;;;8.20;80.05;98015.72;1619492;89;21084;-74
2021/06/02 03:52:23;;;;;;;31.50;14.33;;;;;;;8.25;79.98;98013.55;1690451;85;21039;-73
2021/06/02 03:55:02;;;;;;;9.03;3.83;;;;;;;8.35;79.52;98017.06;1690476;85;21075;-73
2021/06/02 03:57:53;;;;;;;2.20;1.20;;;;;;;8.37;79.74;98023.39;1667439;85;21610;-73
2021/06/02 04:00:24;;;;;;;0.88;0.80;;;;;;;8.39;80.02;98024.09;1690447;85;21158;-70
2021/06/02 04:03:22;;;;;;;2.22;0.85;;;;;;;8.40;79.72;98026.57;1690103;85;21099;-66
2021/06/02 04:06:04;;;;;;;1.12;0.70;;;;;;;8.41;79.40;98026.07;1690454;85;21095;-73
2021/06/02 04:09:04;;;;;;;1.62;0.90;;;;;;;8.42;79.17;98022.55;1690393;85;21146;-71
2021/06/02 04:12:29;;;;;;;2.37;0.80;;;;;;;8.36;78.90;98026.48;1690150;85;21503;-73
2021/06/02 04:15:03;;;;;;;2.37;1.00;;;;;;;8.45;79.42;98024.40;1660757;86;21039;-69
2021/06/02 04:17:32;;;;;;;0.80;0.78;;;;;;;8.50;78.76;98024.84;1661006;86;21099;-72
2021/06/02 04:20:04;;;;;;;1.37;1.15;;;;;;;8.54;79.15;98031.88;1673248;85;21059;-73
2021/06/02 04:22:33;;;;;;;1.12;0.82;;;;;;;8.61;78.61;98029.11;1690081;85;21039;-70
2021/06/02 04:25:02;;;;;;;5.10;1.00;;;;;;;8.66;78.42;98032.14;1690623;85;21075;-70
2021/06/02 04:27:33;;;;;;;1.07;0.85;;;;;;;8.74;78.31;98021.97;1690412;85;21035;-70
2021/06/02 04:30:04;;;;;;;2.02;0.72;;;;;;;8.97;78.01;98032.48;1690448;85;21091;-71
2021/06/02 04:32:42;;;;;;;1.12;0.82;;;;;;;9.03;77.44;98032.42;1690730;85;21039;-71
2021/06/02 04:35:13;;;;;;;3.15;0.95;;;;;;;9.15;77.75;98038.32;1689672;85;21062;-71
2021/06/02 04:37:40;;;;;;;1.42;0.88;;;;;;;9.29;77.10;98037.97;1690350;85;21036;-70
2021/06/02 04:40:09;;;;;;;0.95;0.60;;;;;;;9.45;76.85;98044.26;1690507;85;21138;-70
2021/06/02 04:42:39;;;;;;;0.98;0.60;;;;;;;9.66;77.11;98029.91;1690581;85;21067;-69
2021/06/02 04:45:12;;;;;;;1.45;0.72;;;;;;;9.86;76.95;98034.15;1690274;85;21071;-71
2021/06/02 04:47:41;;;;;;;6.15;0.75;;;;;;;10.08;76.30;98036.14;1690169;85;21087;-71
2021/06/02 04:50:19;;;;;;;1.20;0.62;;;;;;;10.24;75.67;98039.00;1689685;85;21317;-70
2021/06/02 04:53:17;;;;;;;0.55;0.50;;;;;;;10.43;75.30;98040.27;1688480;85;21079;-71
2021/06/02 04:56:24;;;;;;;1.00;0.60;;;;;;;10.62;74.93;98036.83;1690285;85;21084;-71
2021/06/02 04:59:42;;;;;;;1.40;0.90;;;;;;;10.78;73.95;98042.22;1689105;85;21607;-72
2021/06/02 05:02:55;;;;;;;1.95;1.25;;;;;;;10.97;73.69;98044.78;1690413;85;21103;-71
2021/06/02 05:05:54;;;;;;;0.80;0.70;;;;;;;10.79;71.19;98050.36;1690254;85;21589;-70
2021/06/02 05:08:41;;;;;;;0.98;0.80;;;;;;;10.83;71.01;98049.94;1690441;85;21059;-70
2021/06/02 05:11:25;;;;;;;4.08;1.02;;;;;;;10.75;70.70;98055.02;1690284;85;21602;-70
2021/06/02 05:14:29;;;;;;;1.37;0.85;;;;;;;10.76;70.61;98059.74;1688813;84;21523;-70
2021/06/02 05:17:39;;;;;;;3.98;0.90;;;;;;;10.73;71.22;98058.73;1690542;85;21079;-71
2021/06/02 05:23:21;;;;;;;0.78;0.68;;;;;;;10.90;71.54;98065.77;1688605;84;21146;-71
2021/06/02 05:26:39;;;;;;;1.12;0.88;;;;;;;10.82;70.53;98065.18;1690581;85;21741;-72
2021/06/02 05:30:00;;;;;;;1.32;0.90;;;;;;;10.78;70.50;98072.09;1690703;85;21068;-66
2021/06/02 05:33:01;;;;;;;1.20;0.80;;;;;;;10.67;70.55;98062.70;1689811;85;21052;-66
2021/06/02 05:36:11;;;;;;;1.20;0.88;;;;;;;10.68;70.64;98067.41;1689906;85;21673;-66
2021/06/02 05:39:06;;;;;;;1.17;0.95;;;;;;;10.60;70.75;98062.92;1685018;85;21068;-69
2021/06/02 05:41:41;;;;;;;2.70;1.12;;;;;;;10.52;70.57;98062.80;1674491;84;21205;-69
2021/06/02 05:45:04;;;;;;;2.15;1.05;;;;;;;10.47;71.23;98059.80;1674533;85;21568;-70
2021/06/02 05:48:05;;;;;;;2.30;1.00;;;;;;;10.51;71.22;98065.53;1674215;84;21726;-66
2021/06/02 05:51:00;;;;;;;0.75;0.60;;;;;;;10.59;71.26;98067.77;1688461;84;21099;-67
2021/06/02 05:54:11;;;;;;;1.20;0.88;;;;;;;10.73;71.24;98066.05;1698169;84;21074;-70
2021/06/02 05:57:33;;;;;;;2.35;0.93;;;;;;;10.76;71.27;98048.88;1697737;84;21570;-66
2021/06/02 06:00:35;;;;;;;2.30;0.98;;;;;;;10.90;70.97;98061.39;1698242;84;21058;-66
2021/06/02 06:03:33;;;;;;;5.50;0.80;;;;;;;11.07;70.79;98065.03;1670519;84;21554;-70
2021/06/02 06:06:11;;;;;;;1.98;1.10;;;;;;;11.22;70.11;98067.97;1698377;84;21075;-65
2021/06/02 06:09:09;;;;;;;1.30;1.07;;;;;;;11.34;69.44;98066.34;1698478;84;21063;-66
2021/06/02 06:12:03;;;;;;;1.72;1.17;;;;;;;11.44;69.29;98067.58;1698571;84;21504;-70
2021/06/02 06:15:09;;;;;;;1.67;1.27;;;;;;;11.52;68.92;98067.67;1698390;84;21083;-66
2021/06/02 06:18:08;;;;;;;1.70;1.07;;;;;;;11.61;68.18;98064.67;1698492;84;21067;-66
2021/06/02 06:21:09;;;;;;;1.82;1.10;;;;;;;11.84;68.64;98065.92;1698452;84;21102;-70
2021/06/02 06:23:56;;;;;;;3.00;1.00;;;;;;;12.15;68.39;98064.59;1698634;84;21543;-66
2021/06/02 06:26:30;;;;;;;2.20;1.12;;;;;;;12.41;67.38;98056.84;1698674;84;21083;-70
2021/06/02 06:29:22;;;;;;;5.62;0.82;;;;;;;12.60;66.57;98054.52;1698722;84;21039;-66
2021/06/02 06:31:52;;;;;;;3.60;1.12;;;;;;;12.64;66.33;98047.55;1698512;84;21227;-66
2021/06/02 06:34:27;;;;;;;2.30;1.07;;;;;;;12.97;66.06;98051.14;1698384;84;21079;-67
2021/06/02 06:36:57;;;;;;;2.55;1.47;;;;;;;13.20;65.22;98044.91;1698415;84;21048;-70
2021/06/02 06:39:52;;;;;;;2.08;1.10;;;;;;;13.42;64.65;98043.06;1698416;84;21122;-66
2021/06/02 06:42:26;;;;;;;1.15;0.80;;;;;;;13.67;64.77;98040.83;1698465;84;21067;-70
2021/06/02 06:44:57;;;;;;;1.15;0.90;;;;;;;13.94;63.83;98041.52;1698287;84;21079;-70
2021/06/02 06:47:26;;;;;;;2.47;0.95;;;;;;;14.09;63.21;98043.80;1698361;84;21091;-70
2021/06/02 06:49:56;;;;;;;1.60;1.02;;;;;;;14.15;61.52;98043.17;1698324;84;21507;-67
2021/06/02 06:52:25;;;;;;;0.85;0.70;;;;;;;14.34;61.82;98044.63;1698514;84;21086;-66
2021/06/02 06:54:58;;;;;;;1.15;0.80;;;;;;;14.44;61.20;98040.89;1698334;84;21059;-70
2021/06/02 06:57:26;;;;;;;1.07;0.80;;;;;;;14.38;61.10;98048.09;1698628;84;21083;-70
2021/06/02 06:59:55;;;;;;;2.02;0.82;;;;;;;14.50;60.99;98042.05;1698415;84;21086;-67
2021/06/02 07:02:23;;;;;;;1.20;0.90;;;;;;;14.71;61.26;98041.83;1698410;84;21536;-71
2021/06/02 07:04:50;;;;;;;2.60;0.88;;;;;;;14.93;58.21;98042.94;1698251;84;21622;-66
2021/06/02 07:07:19;;;;;;;1.10;0.70;;;;;;;15.22;59.66;98037.09;1698300;84;21622;-66
2021/06/02 07:09:46;;;;;;;0.98;0.65;;;;;;;15.44;56.51;98036.36;1698402;84;21563;-70
2021/06/02 07:12:16;;;;;;;0.93;0.40;;;;;;;15.69;55.93;98029.20;1698379;84;21190;-70
2021/06/02 07:14:43;;;;;;;1.07;0.88;;;;;;;16.03;58.52;98032.76;1698362;84;21586;-71
2021/06/02 07:17:12;;;;;;;3.95;0.95;;;;;;;16.16;53.05;98023.80;1698459;84;21570;-70
2021/06/02 07:19:48;;;;;;;0.85;0.60;;;;;;;16.35;53.04;98025.92;1698446;84;21083;-70
2021/06/02 07:22:22;;;;;;;;;;;;;;;16.64;53.97;98028.32;1672960;86;21087;-67
2021/06/02 07:24:55;;;;;;;1.20;0.80;;;;;;;16.84;52.68;98029.43;1670063;86;20168;-71
2021/06/02 07:27:22;;;;;;;0.93;0.60;;;;;;;16.90;52.14;98019.02;1670396;86;21176;-67
2021/06/02 07:29:49;;;;;;;0.68;0.47;;;;;;;17.06;49.78;98021.95;1670368;86;21063;-66
2021/06/02 07:32:18;;;;;;;1.02;0.62;;;;;;;17.26;53.13;98020.90;1670346;86;21213;-66
2021/06/02 07:34:45;;;;;;;4.42;0.60;;;;;;;17.38;49.97;98026.81;1670295;86;21079;-67
2021/06/02 07:37:12;;;;;;;0.75;0.55;;;;;;;17.57;45.34;98018.87;1670216;86;21204;-67
2021/06/02 07:39:40;;;;;;;0.68;0.55;;;;;;;17.54;44.78;98021.84;1670321;86;21086;-66
2021/06/02 07:42:08;;;;;;;0.45;0.35;;;;;;;17.58;47.79;98023.14;1670266;86;21685;-70
2021/06/02 07:44:35;;;;;;;0.70;0.47;;;;;;;17.72;49.54;98028.02;1670313;86;21217;-67
2021/06/02 07:47:02;;;;;;;0.85;0.60;;;;;;;17.84;47.63;98024.72;1670533;86;21115;-71
2021/06/02 07:49:29;;;;;;;0.75;0.42;;;;;;;17.97;47.36;98023.55;1670465;85;21155;-71
2021/06/02 07:52:00;;;;;;;1.27;0.88;;;;;;;18.09;50.44;98024.36;1670454;86;21182;-68
2021/06/02 07:54:25;;;;;;;0.65;0.62;;;;;;;18.09;48.95;98025.17;1670177;86;21535;-67
2021/06/02 07:56:52;;;;;;;0.85;0.60;;;;;;;18.03;43.57;98016.22;1675998;86;21677;-67
2021/06/02 07:59:20;;;;;;;1.32;0.50;;;;;;;18.10;47.55;98022.83;1675981;86;21185;-67
2021/06/02 08:01:47;;;;;;;1.45;0.70;;;;;;;18.05;49.21;98019.16;1676004;86;21574;-70
2021/06/02 08:04:15;;;;;;;0.60;0.50;;;;;;;18.09;46.17;98019.92;1675900;86;21091;-67
2021/06/02 08:06:42;;;;;;;0.68;0.65;;;;;;;18.09;47.06;98025.67;1675763;85;21074;-67
2021/06/02 08:09:15;;;;;;;1.47;0.40;;;;;;;18.11;47.69;98026.28;1675892;86;21207;-67
2021/06/02 08:11:38;;;;;;;0.68;0.50;;;;;;;17.86;43.85;98027.95;1675016;85;21602;-67
2021/06/02 08:14:04;;;;;;;5.97;0.70;;;;;;;17.98;48.26;98030.41;1675818;86;21111;-66
2021/06/02 08:16:31;;;;;;;0.40;0.40;;;;;;;17.97;46.53;98026.17;1675937;86;21173;-71
2021/06/02 08:19:48;;;;;;;;;;;;;;;18.15;46.67;98024.41;1822941;79;23011;-71
2021/06/02 08:22:14;;;;;;;0.50;0.40;;;;;;;18.16;47.15;98019.97;1793529;80;20135;-67
2021/06/02 08:24:41;;;;;;;0.60;0.53;;;;;;;18.29;48.17;98020.88;1775825;80;21482;-67
2021/06/02 08:27:13;;;;;;;1.90;0.78;;;;;;;18.40;45.67;98020.36;1762572;81;21007;-67
2021/06/02 08:29:41;;;;;;;2.05;0.60;;;;;;;18.54;46.89;98027.89;1762859;81;21047;-67
2021/06/02 08:32:09;;;;;;;0.42;0.37;;;;;;;18.62;42.62;98029.06;1762467;81;21039;-71
2021/06/02 08:34:36;;;;;;;1.00;0.47;;;;;;;18.76;47.31;98028.14;1762734;81;20991;-67
2021/06/02 08:37:05;;;;;;;0.82;0.50;;;;;;;18.74;42.60;98028.03;1762471;81;21059;-67
2021/06/02 08:39:33;;;;;;;0.78;0.50;;;;;;;18.93;46.28;98036.55;1762824;81;21470;-71
2021/06/02 08:42:00;;;;;;;0.95;0.62;;;;;;;18.85;39.52;98040.14;1762647;81;21011;-71
2021/06/02 08:44:27;;;;;;;1.92;0.60;;;;;;;18.78;39.67;98038.48;1762637;81;21046;-71
2021/06/02 08:46:54;;;;;;;1.22;0.88;;;;;;;19.05;45.09;98037.63;1762261;81;21066;-67
2021/06/02 08:49:21;;;;;;;1.12;0.50;;;;;;;18.96;40.25;98038.28;1762668;81;21047;-71
2021/06/02 08:51:49;;;;;;;0.93;0.60;;;;;;;19.01;43.24;98040.34;1762647;81;21015;-67
2021/06/02 08:54:16;;;;;;;1.62;0.60;;;;;;;19.23;44.67;98033.15;1762897;81;21031;-67
2021/06/02 08:56:45;;;;;;;0.45;0.37;;;;;;;19.38;45.59;98038.59;1733245;81;21063;-67
2021/06/02 08:59:12;;;;;;;1.05;0.78;;;;;;;19.48;45.13;98037.45;1762633;81;21490;-71
2021/06/02 09:01:39;;;;;;;0.80;0.60;;;;;;;19.53;43.04;98035.86;1762495;81;21514;-67
2021/06/02 09:04:08;;;;;;;0.82;0.68;;;;;;;19.16;39.59;98037.58;1762600;81;21148;-67
2021/06/02 09:06:43;;;;;;;0.98;0.72;;;;;;;19.08;40.86;98037.73;1762715;81;21014;-67
2021/06/02 09:09:13;;;;;;;1.80;0.60;;;;;;;19.17;44.62;98040.52;1762867;81;21510;-70
2021/06/02 09:11:50;;;;;;;0.80;0.45;;;;;;;19.23;40.49;98032.66;1762685;81;21026;-69
2021/06/02 09:14:30;;;;;;;1.45;1.15;;;;;;;19.39;42.35;98032.82;1762847;81;21552;-67
2021/06/02 09:17:01;;;;;;;2.37;1.92;;;;;;;19.33;38.36;98025.72;1761766;81;21546;-68
2021/06/02 09:19:39;;;;;;;2.35;0.70;;;;;;;18.49;38.74;98025.80;1757433;81;21594;-67
2021/06/02 09:22:10;;;;;;;4.62;0.75;;;;;;;18.96;38.59;98024.31;1757634;81;21483;-67
2021/06/02 09:25:02;;;;;;;2.20;0.70;;;;;;;19.24;38.57;98029.02;1757016;82;21019;-67
2021/06/02 09:27:46;;;;;;;2.72;1.00;;;;;;;19.58;39.79;98023.39;1757420;82;21039;-70
2021/06/02 09:30:18;;;;;;;1.25;0.85;;;;;;;19.75;38.03;98025.98;1756803;82;21039;-67
2021/06/02 09:32:50;;;;;;;1.20;0.70;;;;;;;19.80;37.44;98030.16;1727129;82;21083;-69
2021/06/02 09:35:17;;;;;;;1.95;0.78;;;;;;;19.51;36.28;98029.97;1756500;82;20992;-68
2021/06/02 09:37:52;;;;;;;0.90;0.40;;;;;;;19.98;38.81;98025.63;1757006;81;21646;-68
2021/06/02 09:40:35;;;;;;;1.25;0.72;;;;;;;20.63;37.51;98023.03;1757227;81;21046;-67
2021/06/02 09:43:03;;;;;;;1.05;0.57;;;;;;;20.89;33.45;98012.95;1756993;82;21034;-67
2021/06/02 09:45:30;;;;;;;1.00;0.62;;;;;;;21.21;36.06;98014.70;1756924;82;21051;-70
2021/06/02 09:48:00;;;;;;;0.95;0.62;;;;;;;21.63;38.67;98003.25;1756832;82;21079;-68
2021/06/02 09:50:37;;;;;;;0.50;0.40;;;;;;;21.77;37.54;98005.60;1757085;81;21023;-70
2021/06/02 09:53:09;;;;;;;1.00;0.60;;;;;;;21.82;37.82;98010.26;1756747;82;21024;-68
2021/06/02 09:55:39;;;;;;;0.50;0.50;;;;;;;21.78;37.32;98015.67;1756950;82;21206;-68
2021/06/02 09:58:11;;;;;;;1.98;0.68;;;;;;;21.73;36.17;98012.34;1756974;82;21090;-67
2021/06/02 10:00:54;;;;;;;1.17;0.50;;;;;;;21.57;31.96;98006.22;1756402;81;21095;-70
2021/06/02 10:03:27;;;;;;;0.68;0.68;;;;;;;21.76;37.93;98016.38;1749293;82;21520;-67
2021/06/02 10:05:53;;;;;;;0.65;0.60;;;;;;;21.85;36.04;98007.69;1756932;81;21528;-68
2021/06/02 10:08:32;;;;;;;0.40;0.40;;;;;;;21.53;30.16;98010.30;1756835;82;21075;-71
2021/06/02 10:11:19;;;;;;;0.50;0.47;;;;;;;21.75;34.08;98010.78;1756865;81;20991;-72
2021/06/02 10:13:53;;;;;;;1.60;0.53;;;;;;;21.71;34.85;98006.97;1756744;82;21126;-68
2021/06/02 10:16:40;;;;;;;2.90;0.88;;;;;;;21.60;33.36;98003.66;1756935;81;21032;-70
2021/06/02 10:19:07;;;;;;;0.78;0.60;;;;;;;21.37;31.11;98006.00;1756800;82;21082;-70
2021/06/02 10:21:50;;;;;;;1.20;0.80;;;;;;;21.01;30.52;98005.99;1756603;81;21040;-68
2021/06/02 10:24:18;;;;;;;1.50;0.70;;;;;;;21.01;30.93;98009.17;1756748;81;21043;-70
2021/06/02 10:26:47;;;;;;;1.82;0.72;;;;;;;20.80;29.92;98007.08;1756667;82;21008;-70
2021/06/02 10:29:14;;;;;;;1.40;1.10;;;;;;;21.00;32.73;98016.27;1756798;81;21125;-68
2021/06/02 10:31:41;;;;;;;1.05;0.90;;;;;;;21.09;31.60;98016.84;1756704;82;21062;-70
2021/06/02 10:34:09;;;;;;;0.50;0.50;;;;;;;21.10;30.49;98021.92;1756357;82;21094;-70
2021/06/02 10:36:37;;;;;;;1.72;1.00;;;;;;;21.36;35.78;98025.53;1757240;82;21717;-67
2021/06/02 10:39:07;;;;;;;4.40;2.17;;;;;;;21.48;32.77;98025.97;1757017;82;21467;-69
2021/06/02 10:41:54;;;;;;;2.40;1.60;;;;;;;21.40;29.53;98022.78;1756880;82;21033;-67
2021/06/02 10:44:26;;;;;;;2.45;1.27;;;;;;;21.66;29.85;98023.97;1756548;81;21051;-67
2021/06/02 10:46:54;;;;;;;7.00;2.45;;;;;;;21.56;28.90;98021.77;1755394;82;21078;-67
2021/06/02 10:49:27;;;;;;;7.05;3.80;;;;;;;22.11;31.91;98024.72;1756174;82;20995;-66
2021/06/02 10:51:56;;;;;;;4.40;2.52;;;;;;;22.82;34.90;98020.39;1756841;82;21140;-67
2021/06/02 10:54:41;;;;;;;2.45;1.92;;;;;;;23.45;34.92;98007.70;1756902;82;21519;-67
2021/06/02 10:57:10;;;;;;;4.15;1.60;;;;;;;23.77;32.55;98019.72;1719646;83;21050;-66
2021/06/02 10:59:46;;;;;;;3.72;2.25;;;;;;;23.64;28.10;98016.72;1756921;82;21539;-71
2021/06/02 11:02:17;;;;;;;6.97;2.00;;;;;;;23.74;28.56;98016.16;1756635;82;21039;-71
2021/06/02 11:05:01;;;;;;;2.42;1.05;;;;;;;24.12;30.17;98019.27;1757960;80;20990;-74
2021/06/02 11:07:33;;;;;;;3.05;1.50;;;;;;;23.73;26.55;98030.48;1756622;82;21027;-72
2021/06/02 11:10:13;;;;;;;2.17;1.45;;;;;;;23.58;28.33;98031.36;1757122;80;21074;-75
2021/06/02 11:12:58;;;;;;;7.97;2.30;;;;;;;23.50;27.48;98033.80;1757017;82;21139;-75
2021/06/02 11:15:37;;;;;;;2.67;1.00;;;;;;;23.36;31.54;98039.47;1757222;82;21109;-67
2021/06/02 11:18:17;;;;;;;2.87;1.72;;;;;;;23.05;27.99;98036.45;1754971;81;21026;-74
2021/06/02 11:20:53;;;;;;;2.55;1.72;;;;;;;23.04;30.13;98044.09;1756879;82;21042;-74
2021/06/02 11:23:24;;;;;;;2.00;1.52;;;;;;;22.93;32.16;98037.70;1757027;82;21022;-72
2021/06/02 11:25:51;;;;;;;2.72;1.40;;;;;;;22.86;33.07;98044.09;1757238;81;21034;-74
2021/06/02 11:28:43;;;;;;;2.25;1.55;;;;;;;22.77;29.62;98043.55;1756903;82;21106;-72
2021/06/02 11:31:28;;;;;;;4.33;1.57;;;;;;;22.81;32.64;98043.92;1745580;81;21033;-72
2021/06/02 11:34:29;;;;;;;2.58;1.10;;;;;;;22.85;31.28;98039.30;1757496;82;21077;-67
2021/06/02 11:37:07;;;;;;;4.33;1.65;;;;;;;22.84;30.76;98036.89;1757297;82;21010;-67
2021/06/02 11:39:36;;;;;;;4.90;1.72;;;;;;;23.19;32.43;98037.91;1757136;81;21031;-67
2021/06/02 11:42:06;;;;;;;5.45;2.72;;;;;;;23.56;33.02;98036.91;1757324;82;21574;-71
2021/06/02 11:44:36;;;;;;;1.82;1.35;;;;;;;23.60;32.53;98039.92;1756926;80;21038;-67
2021/06/02 11:47:04;;;;;;;3.10;1.82;;;;;;;23.81;33.42;98043.39;1756964;80;21010;-73
2021/06/02 11:49:34;;;;;;;2.80;0.95;;;;;;;23.84;30.28;98037.66;1756764;80;21095;-66
2021/06/02 11:52:14;;;;;;;51.70;29.45;;;;;;;23.84;30.93;98037.66;1786950;80;21553;-71
2021/06/02 11:54:50;;;;;;;33.98;18.20;;;;;;;23.90;29.77;98038.08;1787791;80;21548;-69
2021/06/02 11:57:45;;;;;;;22.27;13.65;;;;;;;24.12;29.17;98027.78;1787755;80;21025;-69
2021/06/02 12:00:20;;;;;;;15.80;9.08;;;;;;;24.46;28.34;98029.70;1787321;80;21034;-68
2021/06/02 12:02:54;;;;;;;6.55;2.33;;;;;;;24.59;25.09;98029.98;1787635;80;21245;-68
2021/06/02 12:05:28;;;;;;;1.50;1.10;;;;;;;24.81;29.62;98032.89;1787216;80;21053;-72
2021/06/02 12:08:02;;;;;;;1.50;1.12;;;;;;;25.12;27.96;98027.75;1780027;80;21108;-72
2021/06/02 12:10:42;;;;;;;2.83;1.05;;;;;;;25.46;26.62;98031.66;1756622;82;21509;-68
2021/06/02 12:13:28;;;;;;;1.07;0.90;;;;;;;25.32;26.88;98033.49;1756429;81;21049;-72
2021/06/02 12:16:05;;;;;;;1.47;0.80;;;;;;;25.76;23.79;98023.99;1756051;82;21006;-71
2021/06/02 12:18:45;;;;;;;1.05;0.65;;;;;;;26.44;27.37;98027.87;1756507;81;21116;-72
2021/06/02 12:21:28;;;;;;;0.95;0.70;;;;;;;26.84;25.89;98038.38;1748703;81;21094;-72
2021/06/02 12:24:07;;;;;;;0.55;0.42;;;;;;;26.79;26.60;98032.41;1748543;82;21018;-68
2021/06/02 12:26:46;;;;;;;3.85;1.40;;;;;;;26.51;25.56;98042.35;1756939;81;21171;-68
2021/06/02 12:29:17;;;;;;;0.90;0.72;;;;;;;25.47;24.76;98037.27;1752848;81;21030;-68
2021/06/02 12:31:52;;;;;;;1.50;0.75;;;;;;;25.40;27.26;98045.91;1756267;81;21097;-68
2021/06/02 12:34:32;;;;;;;1.23;0.67;;;;;;;25.22;26.61;98050.54;1757327;81;21242;-68
2021/06/02 12:37:01;;;;;;;5.70;0.85;;;;;;;25.01;27.64;98042.67;1751508;80;21148;-68
2021/06/02 12:39:36;;;;;;;1.07;0.70;;;;;;;24.86;27.19;98047.66;1757124;81;21124;-67